QLK6D YSSY-YSTW
Flight info
| Callsign | QLK6D |
|---|---|
| Flight time | 0h 44m |
| Altitude | 23000 |
| Route | OLSEM H252 UPNEX/N0353F220 H140 MATLA/N0357F200 V258 TW |
| Aircraft | DH8D/M-SDE2E3FGRY/H |
Departure
| Time | 2026-04-12 06:27 |
|---|---|
| Airport | Sydney Kingsford Smith International Airport (YSSY) |
Arrival
| Time | 2026-04-12 07:11 |
|---|---|
| Airport | Tamworth Airport (YSTW) |
| Time | Latitude | Longitude | Altitude | Speed | Heading |
|---|---|---|---|---|---|
| 2026-04-12 05:46 | -33.93116 | 151.18227 | 27 ft | 0 kts | 135° |
| 2026-04-12 06:12 | -33.93112 | 151.18222 | 27 ft | 2 kts | 135° |
| 2026-04-12 06:13 | -33.93102 | 151.18210 | 27 ft | 2 kts | 135° |
| 2026-04-12 06:13 | -33.93090 | 151.18198 | 27 ft | 2 kts | 144° |
| 2026-04-12 06:13 | -33.93077 | 151.18188 | 27 ft | 2 kts | 158° |
| 2026-04-12 06:13 | -33.93063 | 151.18184 | 27 ft | 2 kts | 172° |
| 2026-04-12 06:14 | -33.93048 | 151.18182 | 27 ft | 2 kts | 186° |
| 2026-04-12 06:14 | -33.93042 | 151.18184 | 27 ft | 0 kts | 189° |
| 2026-04-12 06:17 | -33.93049 | 151.18182 | 27 ft | 3 kts | 190° |
| 2026-04-12 06:17 | -33.93083 | 151.18166 | 26 ft | 5 kts | 225° |
| 2026-04-12 06:18 | -33.93105 | 151.18106 | 26 ft | 10 kts | 266° |
| 2026-04-12 06:18 | -33.93092 | 151.18001 | 26 ft | 14 kts | 279° |
| 2026-04-12 06:18 | -33.93074 | 151.17883 | 25 ft | 13 kts | 279° |
| 2026-04-12 06:18 | -33.93057 | 151.17772 | 26 ft | 13 kts | 284° |
| 2026-04-12 06:19 | -33.93016 | 151.17656 | 26 ft | 14 kts | 285° |
| 2026-04-12 06:19 | -33.93016 | 151.17560 | 26 ft | 10 kts | 227° |
| 2026-04-12 06:19 | -33.93095 | 151.17519 | 26 ft | 16 kts | 182° |
| 2026-04-12 06:19 | -33.93224 | 151.17551 | 26 ft | 19 kts | 167° |
| 2026-04-12 06:20 | -33.93350 | 151.17583 | 27 ft | 18 kts | 168° |
| 2026-04-12 06:20 | -33.93470 | 151.17584 | 27 ft | 16 kts | 179° |
| 2026-04-12 06:20 | -33.93578 | 151.17607 | 27 ft | 15 kts | 168° |
| 2026-04-12 06:20 | -33.93680 | 151.17660 | 27 ft | 16 kts | 153° |
| 2026-04-12 06:21 | -33.93787 | 151.17696 | 27 ft | 16 kts | 169° |
| 2026-04-12 06:21 | -33.93840 | 151.17784 | 27 ft | 15 kts | 74° |
| 2026-04-12 06:21 | -33.93817 | 151.17880 | 27 ft | 9 kts | 74° |
| 2026-04-12 06:21 | -33.93800 | 151.17952 | 27 ft | 8 kts | 74° |
| 2026-04-12 06:22 | -33.93783 | 151.18025 | 27 ft | 9 kts | 75° |
| 2026-04-12 06:22 | -33.93765 | 151.18105 | 27 ft | 10 kts | 74° |
| 2026-04-12 06:22 | -33.93740 | 151.18210 | 27 ft | 17 kts | 74° |
| 2026-04-12 06:22 | -33.93701 | 151.18372 | 27 ft | 21 kts | 74° |
| 2026-04-12 06:23 | -33.93661 | 151.18543 | 27 ft | 20 kts | 74° |
| 2026-04-12 06:23 | -33.93626 | 151.18689 | 27 ft | 15 kts | 74° |
| 2026-04-12 06:23 | -33.93617 | 151.18774 | 27 ft | 8 kts | 109° |
| 2026-04-12 06:23 | -33.93647 | 151.18806 | 27 ft | 4 kts | 165° |
| 2026-04-12 06:24 | -33.93671 | 151.18816 | 27 ft | 2 kts | 164° |
| 2026-04-12 06:24 | -33.93674 | 151.18816 | 27 ft | 0 kts | 163° |
| 2026-04-12 06:26 | -33.93677 | 151.18817 | 27 ft | 2 kts | 163° |
| 2026-04-12 06:26 | -33.93721 | 151.18832 | 27 ft | 10 kts | 166° |
| 2026-04-12 06:26 | -33.93780 | 151.18846 | 27 ft | 5 kts | 197° |
| 2026-04-12 06:27 | -33.93799 | 151.18799 | 27 ft | 14 kts | 253° |
| 2026-04-12 06:27 | -33.93907 | 151.18338 | 27 ft | 100 kts | 254° |
| 2026-04-12 06:27 | -33.94144 | 151.17397 | 357 ft | 124 kts | 252° |
| 2026-04-12 06:27 | -33.94353 | 151.16380 | 922 ft | 134 kts | 268° |
| 2026-04-12 06:28 | -33.93894 | 151.15364 | 1480 ft | 156 kts | 318° |
| 2026-04-12 06:28 | -33.92754 | 151.15034 | 1921 ft | 189 kts | 2° |
| 2026-04-12 06:28 | -33.91521 | 151.15723 | 2484 ft | 207 kts | 33° |
| 2026-04-12 06:28 | -33.90286 | 151.16815 | 2816 ft | 234 kts | 33° |
| 2026-04-12 06:29 | -33.88878 | 151.18024 | 2954 ft | 258 kts | 33° |
| 2026-04-12 06:29 | -33.87442 | 151.19261 | 2978 ft | 256 kts | 33° |
| 2026-04-12 06:29 | -33.85983 | 151.20523 | 2989 ft | 255 kts | 33° |
| 2026-04-12 06:29 | -33.84566 | 151.21770 | 3265 ft | 253 kts | 33° |
| 2026-04-12 06:30 | -33.83254 | 151.22932 | 4522 ft | 229 kts | 33° |
| 2026-04-12 06:30 | -33.81998 | 151.24069 | 5252 ft | 237 kts | 33° |
| 2026-04-12 06:30 | -33.80630 | 151.25301 | 5793 ft | 249 kts | 33° |
| 2026-04-12 06:30 | -33.79246 | 151.26546 | 6488 ft | 254 kts | 33° |
| 2026-04-12 06:31 | -33.77836 | 151.27814 | 7239 ft | 256 kts | 33° |
| 2026-04-12 06:31 | -33.76421 | 151.29106 | 7944 ft | 260 kts | 36° |
| 2026-04-12 06:31 | -33.75093 | 151.30620 | 8660 ft | 264 kts | 43° |
| 2026-04-12 06:31 | -33.73819 | 151.32179 | 9365 ft | 266 kts | 42° |
| 2026-04-12 06:32 | -33.72501 | 151.33771 | 10024 ft | 270 kts | 41° |
| 2026-04-12 06:32 | -33.71179 | 151.35352 | 10690 ft | 273 kts | 40° |
| 2026-04-12 06:32 | -33.69835 | 151.36946 | 11348 ft | 276 kts | 40° |
| 2026-04-12 06:32 | -33.68450 | 151.38577 | 11966 ft | 279 kts | 39° |
| 2026-04-12 06:33 | -33.67070 | 151.40198 | 12566 ft | 282 kts | 39° |
| 2026-04-12 06:33 | -33.65674 | 151.41829 | 13149 ft | 284 kts | 38° |
| 2026-04-12 06:33 | -33.64247 | 151.43492 | 13713 ft | 286 kts | 38° |
| 2026-04-12 06:33 | -33.62825 | 151.45146 | 14228 ft | 290 kts | 37° |
| 2026-04-12 06:34 | -33.61371 | 151.46835 | 14763 ft | 292 kts | 37° |
| 2026-04-12 06:34 | -33.59920 | 151.48517 | 15262 ft | 294 kts | 37° |
| 2026-04-12 06:34 | -33.58438 | 151.50232 | 15736 ft | 296 kts | 37° |
| 2026-04-12 06:34 | -33.56968 | 151.51935 | 16215 ft | 298 kts | 36° |
| 2026-04-12 06:35 | -33.53972 | 151.55399 | 17136 ft | 302 kts | 36° |
| 2026-04-12 06:35 | -33.52448 | 151.57158 | 17579 ft | 305 kts | 35° |
| 2026-04-12 06:35 | -33.50933 | 151.58907 | 18006 ft | 306 kts | 35° |
| 2026-04-12 06:36 | -33.49388 | 151.60687 | 18402 ft | 309 kts | 35° |
| 2026-04-12 06:36 | -33.47850 | 151.62459 | 18806 ft | 310 kts | 35° |
| 2026-04-12 06:36 | -33.46287 | 151.64259 | 19209 ft | 312 kts | 35° |
| 2026-04-12 06:36 | -33.44627 | 151.65828 | 19541 ft | 298 kts | 15° |
| 2026-04-12 06:37 | -33.42718 | 151.66275 | 19848 ft | 268 kts | 345° |
| 2026-04-12 06:37 | -33.40910 | 151.66017 | 20197 ft | 264 kts | 341° |
| 2026-04-12 06:37 | -33.39109 | 151.65704 | 20518 ft | 265 kts | 340° |
| 2026-04-12 06:37 | -33.37280 | 151.65369 | 20827 ft | 266 kts | 340° |
| 2026-04-12 06:38 | -33.35465 | 151.65027 | 21114 ft | 267 kts | 339° |
| 2026-04-12 06:38 | -33.33621 | 151.64673 | 21410 ft | 267 kts | 339° |
| 2026-04-12 06:38 | -33.31801 | 151.64322 | 21692 ft | 268 kts | 339° |
| 2026-04-12 06:38 | -33.29955 | 151.63962 | 21956 ft | 268 kts | 339° |
| 2026-04-12 06:39 | -33.28131 | 151.63605 | 22205 ft | 269 kts | 339° |
| 2026-04-12 06:39 | -33.26277 | 151.63238 | 22456 ft | 269 kts | 339° |
| 2026-04-12 06:39 | -33.24446 | 151.62877 | 22704 ft | 269 kts | 339° |
| 2026-04-12 06:39 | -33.22611 | 151.62514 | 22952 ft | 269 kts | 339° |
| 2026-04-12 06:40 | -33.20762 | 151.62149 | 23201 ft | 268 kts | 339° |
| 2026-04-12 06:40 | -33.18943 | 151.61789 | 23448 ft | 267 kts | 338° |
| 2026-04-12 06:40 | -33.17105 | 151.61424 | 23696 ft | 266 kts | 338° |
| 2026-04-12 06:40 | -33.15292 | 151.61063 | 23839 ft | 269 kts | 338° |
| 2026-04-12 06:41 | -33.13419 | 151.60686 | 23881 ft | 275 kts | 338° |
| 2026-04-12 06:41 | -33.11528 | 151.60306 | 23890 ft | 281 kts | 339° |
| 2026-04-12 06:41 | -33.09592 | 151.59918 | 23890 ft | 287 kts | 339° |
| 2026-04-12 06:41 | -33.07591 | 151.59518 | 23885 ft | 293 kts | 339° |
| 2026-04-12 06:42 | -33.05587 | 151.59120 | 23882 ft | 297 kts | 339° |
| 2026-04-12 06:42 | -33.03517 | 151.58710 | 23878 ft | 302 kts | 339° |
| 2026-04-12 06:42 | -33.01449 | 151.58299 | 23875 ft | 306 kts | 340° |
| 2026-04-12 06:42 | -32.99327 | 151.57881 | 23870 ft | 309 kts | 340° |
| 2026-04-12 06:43 | -32.97216 | 151.57465 | 23865 ft | 311 kts | 340° |
| 2026-04-12 06:43 | -32.95076 | 151.57044 | 23860 ft | 312 kts | 340° |
| 2026-04-12 06:43 | -32.92939 | 151.56622 | 23859 ft | 312 kts | 340° |
| 2026-04-12 06:43 | -32.90813 | 151.56204 | 23858 ft | 313 kts | 340° |
| 2026-04-12 06:44 | -32.88645 | 151.55775 | 23859 ft | 314 kts | 340° |
| 2026-04-12 06:44 | -32.86508 | 151.55354 | 23858 ft | 314 kts | 340° |
| 2026-04-12 06:44 | -32.84340 | 151.54927 | 23859 ft | 315 kts | 340° |
| 2026-04-12 06:44 | -32.82194 | 151.54503 | 23859 ft | 316 kts | 340° |
| 2026-04-12 06:45 | -32.80016 | 151.54074 | 23857 ft | 316 kts | 340° |
| 2026-04-12 06:45 | -32.77868 | 151.53651 | 23858 ft | 316 kts | 340° |
| 2026-04-12 06:45 | -32.75726 | 151.53210 | 23855 ft | 314 kts | 338° |
| 2026-04-12 06:45 | -32.73655 | 151.52470 | 23865 ft | 307 kts | 330° |
| 2026-04-12 06:46 | -32.71667 | 151.51617 | 23861 ft | 307 kts | 330° |
| 2026-04-12 06:46 | -32.69652 | 151.50751 | 23857 ft | 307 kts | 330° |
| 2026-04-12 06:46 | -32.67662 | 151.49896 | 23856 ft | 307 kts | 330° |
| 2026-04-12 06:46 | -32.65643 | 151.49034 | 23857 ft | 307 kts | 330° |
| 2026-04-12 06:47 | -32.63650 | 151.48186 | 23858 ft | 307 kts | 330° |
| 2026-04-12 06:47 | -32.61625 | 151.47325 | 23858 ft | 308 kts | 330° |
| 2026-04-12 06:47 | -32.59629 | 151.46480 | 23858 ft | 307 kts | 330° |
| 2026-04-12 06:47 | -32.57608 | 151.45624 | 23858 ft | 307 kts | 330° |
| 2026-04-12 06:48 | -32.55617 | 151.44781 | 23858 ft | 307 kts | 330° |
| 2026-04-12 06:48 | -32.53599 | 151.43930 | 23857 ft | 306 kts | 330° |
| 2026-04-12 06:48 | -32.51611 | 151.43092 | 23858 ft | 306 kts | 330° |
| 2026-04-12 06:48 | -32.49623 | 151.42255 | 23858 ft | 305 kts | 330° |
| 2026-04-12 06:49 | -32.47613 | 151.41408 | 23857 ft | 305 kts | 330° |
| 2026-04-12 06:49 | -32.45632 | 151.40573 | 23860 ft | 305 kts | 330° |
| 2026-04-12 06:49 | -32.43623 | 151.39728 | 23864 ft | 305 kts | 330° |
| 2026-04-12 06:49 | -32.41640 | 151.38893 | 23867 ft | 306 kts | 330° |
| 2026-04-12 06:50 | -32.39650 | 151.38057 | 23871 ft | 306 kts | 330° |
| 2026-04-12 06:50 | -32.37637 | 151.37212 | 23873 ft | 305 kts | 330° |
| 2026-04-12 06:50 | -32.35656 | 151.36380 | 23876 ft | 305 kts | 330° |
| 2026-04-12 06:50 | -32.33646 | 151.35536 | 23880 ft | 305 kts | 330° |
| 2026-04-12 06:51 | -32.31665 | 151.34705 | 23886 ft | 305 kts | 331° |
| 2026-04-12 06:51 | -32.29671 | 151.33868 | 23885 ft | 306 kts | 331° |
| 2026-04-12 06:51 | -32.27660 | 151.33025 | 23883 ft | 305 kts | 331° |
| 2026-04-12 06:51 | -32.25666 | 151.32190 | 23885 ft | 306 kts | 330° |
| 2026-04-12 06:52 | -32.23672 | 151.31355 | 23886 ft | 306 kts | 331° |
| 2026-04-12 06:52 | -32.21650 | 151.30508 | 23885 ft | 306 kts | 331° |
| 2026-04-12 06:52 | -32.19649 | 151.29672 | 23885 ft | 306 kts | 331° |
| 2026-04-12 06:52 | -32.17648 | 151.28836 | 23885 ft | 306 kts | 331° |
| 2026-04-12 06:53 | -32.15646 | 151.28000 | 23885 ft | 306 kts | 331° |
| 2026-04-12 06:53 | -32.13644 | 151.27164 | 23885 ft | 306 kts | 331° |
| 2026-04-12 06:53 | -32.11658 | 151.26335 | 23885 ft | 305 kts | 330° |
| 2026-04-12 06:53 | -32.09673 | 151.25507 | 23885 ft | 306 kts | 331° |
| 2026-04-12 06:54 | -32.07665 | 151.24667 | 23885 ft | 306 kts | 331° |
| 2026-04-12 06:54 | -32.05652 | 151.23828 | 23884 ft | 306 kts | 331° |
| 2026-04-12 06:54 | -32.03653 | 151.22995 | 23885 ft | 307 kts | 331° |
| 2026-04-12 06:54 | -32.01651 | 151.22162 | 23885 ft | 307 kts | 331° |
| 2026-04-12 06:55 | -31.99647 | 151.21327 | 23885 ft | 307 kts | 331° |
| 2026-04-12 06:55 | -31.97641 | 151.20493 | 23883 ft | 307 kts | 331° |
| 2026-04-12 06:55 | -31.95611 | 151.19649 | 23884 ft | 307 kts | 331° |
| 2026-04-12 06:55 | -31.93616 | 151.18820 | 23886 ft | 306 kts | 331° |
| 2026-04-12 06:56 | -31.91624 | 151.17993 | 23890 ft | 305 kts | 331° |
| 2026-04-12 06:56 | -31.89611 | 151.17157 | 23893 ft | 305 kts | 331° |
| 2026-04-12 06:56 | -31.87625 | 151.16332 | 23895 ft | 306 kts | 331° |
| 2026-04-12 06:56 | -31.85634 | 151.15506 | 23638 ft | 305 kts | 331° |
| 2026-04-12 06:57 | -31.83663 | 151.14696 | 23124 ft | 294 kts | 331° |
| 2026-04-12 06:57 | -31.81785 | 151.13921 | 22617 ft | 285 kts | 331° |
| 2026-04-12 06:57 | -31.79937 | 151.13156 | 22104 ft | 277 kts | 330° |
| 2026-04-12 06:57 | -31.78159 | 151.12421 | 21598 ft | 270 kts | 330° |
| 2026-04-12 06:58 | -31.76424 | 151.11702 | 21091 ft | 264 kts | 330° |
| 2026-04-12 06:58 | -31.74723 | 151.10997 | 20584 ft | 258 kts | 330° |
| 2026-04-12 06:58 | -31.73041 | 151.10300 | 20072 ft | 253 kts | 330° |
| 2026-04-12 06:58 | -31.71413 | 151.09631 | 19567 ft | 248 kts | 331° |
| 2026-04-12 06:59 | -31.69809 | 151.08984 | 19064 ft | 245 kts | 331° |
| 2026-04-12 06:59 | -31.68206 | 151.08336 | 18555 ft | 241 kts | 331° |
| 2026-04-12 06:59 | -31.66642 | 151.07698 | 18051 ft | 238 kts | 331° |
| 2026-04-12 07:00 | -31.63578 | 151.06439 | 17043 ft | 232 kts | 331° |
| 2026-04-12 07:00 | -31.62087 | 151.05823 | 16543 ft | 229 kts | 331° |
| 2026-04-12 07:00 | -31.60515 | 151.05420 | 16013 ft | 240 kts | 351° |
| 2026-04-12 07:00 | -31.58848 | 151.05718 | 15527 ft | 246 kts | 1° |
| 2026-04-12 07:01 | -31.57184 | 151.06137 | 15032 ft | 248 kts | 2° |
| 2026-04-12 07:01 | -31.55492 | 151.06551 | 14547 ft | 252 kts | 2° |
| 2026-04-12 07:01 | -31.53779 | 151.06958 | 14061 ft | 255 kts | 2° |
| 2026-04-12 07:01 | -31.52026 | 151.07362 | 13562 ft | 257 kts | 2° |
| 2026-04-12 07:02 | -31.50289 | 151.07750 | 13068 ft | 257 kts | 2° |
| 2026-04-12 07:02 | -31.48546 | 151.08130 | 12575 ft | 257 kts | 2° |
| 2026-04-12 07:02 | -31.46777 | 151.08505 | 12076 ft | 258 kts | 2° |
| 2026-04-12 07:02 | -31.45025 | 151.08865 | 11584 ft | 258 kts | 2° |
| 2026-04-12 07:03 | -31.43253 | 151.09212 | 11081 ft | 257 kts | 2° |
| 2026-04-12 07:03 | -31.41512 | 151.09526 | 10585 ft | 255 kts | 2° |
| 2026-04-12 07:03 | -31.39753 | 151.09821 | 10082 ft | 254 kts | 2° |
| 2026-04-12 07:03 | -31.38020 | 151.10086 | 9586 ft | 253 kts | 2° |
| 2026-04-12 07:04 | -31.36293 | 151.10326 | 9090 ft | 252 kts | 2° |
| 2026-04-12 07:04 | -31.34559 | 151.10471 | 8581 ft | 249 kts | 353° |
| 2026-04-12 07:04 | -31.32895 | 151.10118 | 8092 ft | 244 kts | 342° |
| 2026-04-12 07:04 | -31.31235 | 151.09665 | 7591 ft | 243 kts | 343° |
| 2026-04-12 07:05 | -31.29600 | 151.09219 | 7107 ft | 242 kts | 343° |
| 2026-04-12 07:05 | -31.27990 | 151.08775 | 6754 ft | 235 kts | 342° |
| 2026-04-12 07:05 | -31.26562 | 151.08041 | 6452 ft | 220 kts | 319° |
| 2026-04-12 07:05 | -31.25500 | 151.06830 | 6178 ft | 211 kts | 308° |
| 2026-04-12 07:06 | -31.24520 | 151.05551 | 5915 ft | 210 kts | 309° |
| 2026-04-12 07:06 | -31.23528 | 151.04300 | 5645 ft | 211 kts | 309° |
| 2026-04-12 07:06 | -31.22527 | 151.03041 | 5366 ft | 211 kts | 309° |
| 2026-04-12 07:06 | -31.21529 | 151.01785 | 5088 ft | 212 kts | 309° |
| 2026-04-12 07:07 | -31.20530 | 151.00529 | 4807 ft | 213 kts | 310° |
| 2026-04-12 07:07 | -31.19522 | 150.99262 | 4520 ft | 213 kts | 310° |
| 2026-04-12 07:07 | -31.18535 | 150.98025 | 4212 ft | 205 kts | 309° |
| 2026-04-12 07:07 | -31.17589 | 150.96840 | 3915 ft | 196 kts | 309° |
| 2026-04-12 07:08 | -31.16700 | 150.95725 | 3714 ft | 177 kts | 309° |
| 2026-04-12 07:08 | -31.15899 | 150.94725 | 3473 ft | 157 kts | 309° |
| 2026-04-12 07:08 | -31.15208 | 150.93864 | 3277 ft | 138 kts | 309° |
| 2026-04-12 07:08 | -31.14560 | 150.93048 | 3070 ft | 135 kts | 308° |
| 2026-04-12 07:09 | -31.13927 | 150.92253 | 2926 ft | 135 kts | 309° |
| 2026-04-12 07:09 | -31.13276 | 150.91438 | 2769 ft | 136 kts | 308° |
| 2026-04-12 07:09 | -31.12633 | 150.90636 | 2594 ft | 135 kts | 309° |
| 2026-04-12 07:09 | -31.12001 | 150.89844 | 2399 ft | 132 kts | 309° |
| 2026-04-12 07:10 | -31.11373 | 150.89053 | 2220 ft | 131 kts | 309° |
| 2026-04-12 07:10 | -31.10760 | 150.88283 | 2045 ft | 129 kts | 309° |
| 2026-04-12 07:10 | -31.10156 | 150.87526 | 1873 ft | 127 kts | 308° |
| 2026-04-12 07:10 | -31.09559 | 150.86775 | 1707 ft | 124 kts | 308° |
| 2026-04-12 07:11 | -31.08987 | 150.86050 | 1537 ft | 121 kts | 308° |
| 2026-04-12 07:11 | -31.08409 | 150.85323 | 1371 ft | 122 kts | 308° |
| 2026-04-12 07:11 | -31.07883 | 150.84662 | 1343 ft | 83 kts | 314° |
| 2026-04-12 07:11 | -31.07608 | 150.84325 | 1343 ft | 39 kts | 313° |
| 2026-04-12 07:12 | -31.07494 | 150.84181 | 1343 ft | 11 kts | 313° |
| 2026-04-12 07:12 | -31.07463 | 150.84132 | 1343 ft | 6 kts | 285° |
| 2026-04-12 07:12 | -31.07452 | 150.84134 | 1343 ft | 8 kts | 124° |
| 2026-04-12 07:12 | -31.07525 | 150.84219 | 1343 ft | 21 kts | 137° |
| 2026-04-12 07:13 | -31.07648 | 150.84370 | 1343 ft | 27 kts | 135° |
| 2026-04-12 07:13 | -31.07785 | 150.84543 | 1343 ft | 30 kts | 134° |
| 2026-04-12 07:13 | -31.07939 | 150.84735 | 1343 ft | 33 kts | 132° |
| 2026-04-12 07:13 | -31.08100 | 150.84940 | 1343 ft | 35 kts | 132° |
| 2026-04-12 07:14 | -31.08207 | 150.85068 | 1343 ft | 13 kts | 153° |
| 2026-04-12 07:14 | -31.08270 | 150.85037 | 1343 ft | 8 kts | 222° |
| 2026-04-12 07:14 | -31.08306 | 150.85001 | 1343 ft | 5 kts | 221° |
| 2026-04-12 07:14 | -31.08339 | 150.84966 | 1343 ft | 7 kts | 222° |
| 2026-04-12 07:15 | -31.08376 | 150.84933 | 1343 ft | 6 kts | 195° |
| 2026-04-12 07:15 | -31.08399 | 150.84906 | 1343 ft | 1 kts | 263° |
| 2026-04-12 07:15 | -31.08399 | 150.84900 | 1343 ft | 1 kts | 265° |
| 2026-04-12 07:15 | -31.08400 | 150.84895 | 1343 ft | 0 kts | 265° |